»·PEaware :: N716TH KSNA-KSNA

N716TH :: KSNA-KSNA

FLIGHT INFORMATION

Flight Status: Arrived
Operator: Privately registered:
United States
More flights under this callsign
Pilot: Danny R. (17997)
Aircraft: CESSNA 172 SKYHAWK
(C172)
More flights by this aircraft type
Origin: KSNA John Wayne-Orange Co
United States
Destination: KSNA John Wayne-Orange Co
United States
More flights between these airports :: More routes between these airports
Route: +SLI
File this flight plan on PilotEdge
Remarks:
Altitude:
(Current/Filed)
3,000ft
Speed:
(Current/Filed)
100kts
Departed: 27-Mar-18 09:44 AM
Arrived: 27-Mar-18 10:07 AM
Distance/Time
Traveled:
0nm/0:23
Distance/Time
To Go:
Arrived

Flight Plot

Page will automatically refresh every two minutes.


Map Options




Map Legend


Flown Route
Filed Route
Departure Airport
Arrival Airport
Navaid (VOR, NDB)
Fix

Horizontal Profiles

Position Reports

Time Latitude Longitude Heading Altitude Ground
Speed
27-Mar-18 09:11 33.671317 -117.867965 28 60ft 0kts
27-Mar-18 09:12 33.671317 -117.867965 28 60ft 0kts
27-Mar-18 09:13 33.671317 -117.867965 28 60ft 0kts
27-Mar-18 09:14 33.671317 -117.867965 28 60ft 0kts
27-Mar-18 09:15 33.671317 -117.867965 28 60ft 0kts
27-Mar-18 09:16 33.671317 -117.867965 28 60ft 0kts
27-Mar-18 09:17 33.671317 -117.867965 28 60ft 0kts
27-Mar-18 09:18 33.671317 -117.867965 28 60ft 0kts
27-Mar-18 09:19 33.671317 -117.867965 28 60ft 0kts
27-Mar-18 09:20 33.671317 -117.867965 28 60ft 0kts
27-Mar-18 09:21 33.671317 -117.867965 28 60ft 0kts
27-Mar-18 09:22 33.671317 -117.867965 28 60ft 0kts
27-Mar-18 09:23 33.671317 -117.867965 28 60ft 0kts
27-Mar-18 09:24 33.671317 -117.867965 28 60ft 0kts
27-Mar-18 09:25 33.671317 -117.867965 28 60ft 0kts
27-Mar-18 09:26 33.671317 -117.867965 28 60ft 0kts
27-Mar-18 09:27 33.671317 -117.867964 28 60ft 0kts
27-Mar-18 09:28 33.671317 -117.867964 28 60ft 0kts
27-Mar-18 09:29 33.671317 -117.867964 28 60ft 0kts
27-Mar-18 09:30 33.671317 -117.867964 28 60ft 0kts
27-Mar-18 09:31 33.671317 -117.867964 28 60ft 0kts
27-Mar-18 09:32 33.671317 -117.867964 28 60ft 0kts
27-Mar-18 09:33 33.672926 -117.867486 41 60ft 2kts
27-Mar-18 09:34 33.673325 -117.867935 146 60ft 0kts
27-Mar-18 09:35 33.673326 -117.867936 146 60ft 0kts
27-Mar-18 09:36 33.673326 -117.867936 146 60ft 0kts
27-Mar-18 09:37 33.673326 -117.867936 146 60ft 0kts
27-Mar-18 09:38 33.673323 -117.867934 145 60ft 0kts
27-Mar-18 09:39 33.675623 -117.866127 31 60ft 3kts
27-Mar-18 09:40 33.678655 -117.864208 25 60ft 17kts
27-Mar-18 09:41 33.680015 -117.863686 301 60ft 0kts
27-Mar-18 09:42 33.680015 -117.863686 301 60ft 0kts
27-Mar-18 09:43 33.674283 -117.868045 211 214ft 67kts
27-Mar-18 09:44 33.659595 -117.883526 240 1001ft 74kts
27-Mar-18 09:45 33.649047 -117.905064 240 1698ft 77kts
27-Mar-18 09:46 33.657160 -117.916819 5 2388ft 71kts
27-Mar-18 09:47 33.677620 -117.915521 1 2926ft 83kts
27-Mar-18 09:48 33.702838 -117.914530 2 3015ft 92kts
27-Mar-18 09:49 33.728092 -117.910483 25 3009ft 94kts
27-Mar-18 09:50 33.750662 -117.894866 28 2982ft 93kts
27-Mar-18 09:51 33.772704 -117.879838 27 3028ft 87kts
27-Mar-18 09:52 33.794717 -117.865190 27 3009ft 90kts
27-Mar-18 09:53 33.817548 -117.850716 27 2982ft 94kts
27-Mar-18 09:54 33.840620 -117.836406 26 3025ft 90kts
27-Mar-18 09:55 33.863434 -117.821959 28 3009ft 95kts
27-Mar-18 09:56 33.885322 -117.805828 70 2964ft 99kts
27-Mar-18 09:57 33.875792 -117.775641 116 2962ft 98kts
27-Mar-18 09:58 33.850610 -117.765569 178 2889ft 103kts
27-Mar-18 09:59 33.822241 -117.763622 180 2853ft 102kts
27-Mar-18 10:00 33.801380 -117.786086 227 2604ft 103kts
27-Mar-18 10:01 33.777434 -117.805289 206 2338ft 103kts
27-Mar-18 10:02 33.752873 -117.820524 209 1463ft 98kts
27-Mar-18 10:03 33.730603 -117.834156 207 1181ft 97kts
27-Mar-18 10:04 33.708429 -117.848060 209 689ft 82kts
27-Mar-18 10:05 33.690543 -117.859328 211 286ft 66kts
27-Mar-18 10:06 33.677814 -117.867340 156 60ft 7kts
27-Mar-18 10:07 33.677342 -117.866619 114 60ft 3kts
27-Mar-18 10:08 33.677242 -117.866387 121 60ft 0kts
27-Mar-18 10:09 33.675880 -117.865969 207 60ft 13kts
27-Mar-18 10:10 33.672954 -117.867440 222 60ft 12kts
27-Mar-18 10:11 33.671836 -117.867146 212 60ft 0kts
27-Mar-18 10:12 33.671836 -117.867146 212 60ft 0kts
27-Mar-18 10:13 33.671836 -117.867146 212 60ft 0kts
27-Mar-18 10:14 33.671836 -117.867146 212 60ft 0kts
27-Mar-18 10:15 33.671836 -117.867146 212 60ft 0kts
27-Mar-18 10:16 33.671836 -117.867146 212 60ft 0kts
27-Mar-18 10:17 33.671836 -117.867146 212 60ft 0kts

Navigation Log

Ident Type
1. KSNA Airport
2. SLI Navaid
3. KSNA Airport